createdAt,value
2019-05-03T00:00:09.171Z,1006.24
2019-05-03T00:01:09.169Z,1006.23
2019-05-03T00:02:09.145Z,1006.23
2019-05-03T00:03:09.125Z,1006.23
2019-05-03T00:04:09.132Z,1006.21
2019-05-03T00:05:09.187Z,1006.19
2019-05-03T00:06:09.093Z,1006.17
2019-05-03T00:07:11.688Z,1006.18
2019-05-03T00:08:09.088Z,1006.19
2019-05-03T00:09:09.066Z,1006.22
2019-05-03T00:10:09.498Z,1006.22
2019-05-03T00:11:09.043Z,1006.24
2019-05-03T00:12:09.039Z,1006.26
2019-05-03T00:13:09.015Z,1006.31
2019-05-03T00:14:09.968Z,1006.25
2019-05-03T00:15:09.028Z,1006.26
2019-05-03T00:16:09.000Z,1006.29
2019-05-03T00:17:08.976Z,1006.25
2019-05-03T00:18:08.960Z,1006.25
2019-05-03T00:19:09.484Z,1006.28
2019-05-03T00:20:08.965Z,1006.29
2019-05-03T00:21:08.952Z,1006.30
2019-05-03T00:22:08.916Z,1006.31
2019-05-03T00:23:08.909Z,1006.31
2019-05-03T00:24:08.901Z,1006.28
2019-05-03T00:25:09.017Z,1006.28
2019-05-03T00:26:08.893Z,1006.32
2019-05-03T00:27:08.865Z,1006.30
2019-05-03T00:28:08.861Z,1006.25
2019-05-03T00:29:08.843Z,1006.26
2019-05-03T00:30:08.865Z,1006.25
2019-05-03T00:31:09.465Z,1006.32
2019-05-03T00:32:08.814Z,1006.28
2019-05-03T00:33:08.806Z,1006.31
2019-05-03T00:34:09.474Z,1006.24
2019-05-03T00:35:08.784Z,1006.31
2019-05-03T00:36:11.567Z,1006.29
2019-05-03T00:37:08.768Z,1006.27
2019-05-03T00:38:08.756Z,1006.27
2019-05-03T00:39:08.740Z,1006.19
2019-05-03T00:40:08.730Z,1006.24
2019-05-03T00:41:09.478Z,1006.26
2019-05-03T00:42:08.708Z,1006.22
2019-05-03T00:43:08.693Z,1006.24
2019-05-03T00:44:11.479Z,1006.25
2019-05-03T00:45:08.976Z,1006.28
2019-05-03T00:46:08.667Z,1006.27
2019-05-03T00:47:08.646Z,1006.27
2019-05-03T00:48:08.638Z,1006.25
2019-05-03T00:49:09.468Z,1006.23
2019-05-03T00:50:08.648Z,1006.27
2019-05-03T00:51:08.631Z,1006.24
2019-05-03T00:52:08.591Z,1006.26
2019-05-03T00:53:08.579Z,1006.23
2019-05-03T00:54:08.582Z,1006.19
2019-05-03T00:55:16.329Z,1006.31
2019-05-03T00:56:08.584Z,1006.20
2019-05-03T00:57:08.535Z,1006.26
2019-05-03T00:58:08.524Z,1006.34
2019-05-03T00:59:08.521Z,1006.30
2019-05-03T01:00:09.467Z,1006.30
2019-05-03T01:01:08.529Z,1006.33
2019-05-03T01:02:08.489Z,1006.31
2019-05-03T01:03:08.469Z,1006.30
2019-05-03T01:04:08.467Z,1006.31
2019-05-03T01:05:08.448Z,1006.34
2019-05-03T01:06:08.560Z,1006.37
2019-05-03T01:07:08.428Z,1006.35
2019-05-03T01:08:08.416Z,1006.30
2019-05-03T01:09:08.406Z,1006.23
2019-05-03T01:10:08.411Z,1006.36
2019-05-03T01:11:08.412Z,1006.26
2019-05-03T01:12:08.385Z,1006.34
2019-05-03T01:13:09.001Z,1006.29
2019-05-03T01:14:08.374Z,1006.34
2019-05-03T01:15:08.339Z,1006.32
2019-05-03T01:16:08.514Z,1006.34
2019-05-03T01:17:08.331Z,1006.29
2019-05-03T01:18:08.322Z,1006.28
2019-05-03T01:19:08.299Z,1006.32
2019-05-03T01:20:08.295Z,1006.36
2019-05-03T01:21:08.369Z,1006.35
2019-05-03T01:22:08.609Z,1006.32
2019-05-03T01:23:08.255Z,1006.32
2019-05-03T01:24:08.979Z,1006.30
2019-05-03T01:25:08.233Z,1006.33
2019-05-03T01:26:08.238Z,1006.24
2019-05-03T01:27:08.232Z,1006.32
2019-05-03T01:28:08.203Z,1006.31
2019-05-03T01:29:08.217Z,1006.33
2019-05-03T01:30:08.191Z,1006.28
2019-05-03T01:31:08.166Z,1006.28
2019-05-03T01:32:08.180Z,1006.31
2019-05-03T01:33:08.145Z,1006.30
2019-05-03T01:34:08.131Z,1006.31
2019-05-03T01:35:08.121Z,1006.30
2019-05-03T01:36:08.127Z,1006.26
2019-05-03T01:37:08.143Z,1006.31
2019-05-03T01:38:08.089Z,1006.35
2019-05-03T01:39:08.985Z,1006.35
2019-05-03T01:40:08.975Z,1006.37
2019-05-03T01:41:08.064Z,1006.36
2019-05-03T01:42:08.076Z,1006.34
2019-05-03T01:43:08.033Z,1006.37
2019-05-03T01:44:08.027Z,1006.36
2019-05-03T01:45:08.969Z,1006.34
2019-05-03T01:46:08.008Z,1006.32
2019-05-03T01:47:08.036Z,1006.32
2019-05-03T01:48:07.980Z,1006.32
2019-05-03T01:49:07.973Z,1006.32
2019-05-03T01:50:07.965Z,1006.33
2019-05-03T01:51:07.954Z,1006.37
2019-05-03T01:52:07.960Z,1006.38
2019-05-03T01:53:08.477Z,1006.41
2019-05-03T01:54:07.916Z,1006.41
2019-05-03T01:55:07.909Z,1006.41
2019-05-03T01:56:07.893Z,1006.40
2019-05-03T01:57:07.997Z,1006.39
2019-05-03T01:58:08.493Z,1006.44
2019-05-03T01:59:07.865Z,1006.43
2019-05-03T02:00:07.846Z,1006.44
2019-05-03T02:01:07.850Z,1006.44
2019-05-03T02:02:08.012Z,1006.44
2019-05-03T02:03:07.815Z,1006.48
2019-05-03T02:04:07.805Z,1006.45
2019-05-03T02:05:07.794Z,1006.46
2019-05-03T02:06:07.786Z,1006.45
2019-05-03T02:07:07.792Z,1006.39
2019-05-03T02:08:07.781Z,1006.48
2019-05-03T02:09:07.758Z,1006.55
2019-05-03T02:10:07.810Z,1006.51
2019-05-03T02:11:07.729Z,1006.39
2019-05-03T02:12:07.717Z,1006.49
2019-05-03T02:13:08.012Z,1006.40
2019-05-03T02:14:07.709Z,1006.51
2019-05-03T02:15:07.707Z,1006.53
2019-05-03T02:16:07.731Z,1006.53
2019-05-03T02:17:07.670Z,1006.54
2019-05-03T02:18:08.004Z,1006.55
2019-05-03T02:19:08.476Z,1006.53
2019-05-03T02:20:08.475Z,1006.55
2019-05-03T02:21:07.634Z,1006.51
2019-05-03T02:22:08.485Z,1006.53
2019-05-03T02:23:07.632Z,1006.50
2019-05-03T02:24:07.637Z,1006.57
2019-05-03T02:25:07.582Z,1006.54
2019-05-03T02:26:07.607Z,1006.57
2019-05-03T02:27:07.562Z,1006.57
2019-05-03T02:28:07.553Z,1006.57
2019-05-03T02:29:07.534Z,1006.58
2019-05-03T02:30:07.529Z,1006.60
2019-05-03T02:31:08.477Z,1006.59
2019-05-03T02:32:07.512Z,1006.59
2019-05-03T02:33:07.527Z,1006.63
2019-05-03T02:34:07.492Z,1006.63
2019-05-03T02:35:07.979Z,1006.67
2019-05-03T02:36:07.470Z,1006.67
2019-05-03T02:37:07.471Z,1006.68
2019-05-03T02:38:07.461Z,1006.66
2019-05-03T02:39:07.442Z,1006.69
2019-05-03T02:40:07.419Z,1006.70
2019-05-03T02:41:07.407Z,1006.68
2019-05-03T02:42:11.361Z,1006.70
2019-05-03T02:43:07.420Z,1006.68
2019-05-03T02:44:07.989Z,1006.72
2019-05-03T02:45:07.392Z,1006.61
2019-05-03T02:46:07.351Z,1006.77
2019-05-03T02:47:07.334Z,1006.72
2019-05-03T02:48:07.378Z,1006.70
2019-05-03T02:49:07.353Z,1006.73
2019-05-03T02:50:07.310Z,1006.70
2019-05-03T02:51:07.302Z,1006.76
2019-05-03T02:52:07.987Z,1006.76
2019-05-03T02:53:07.282Z,1006.75
2019-05-03T02:54:07.519Z,1006.77
2019-05-03T02:55:07.278Z,1006.81
2019-05-03T02:56:20.924Z,1006.76
2019-05-03T02:57:07.230Z,1006.72
2019-05-03T02:58:07.238Z,1006.77
2019-05-03T02:59:07.519Z,1006.75
2019-05-03T03:00:07.218Z,1006.74
2019-05-03T03:01:07.202Z,1006.71
2019-05-03T03:02:07.183Z,1006.71
2019-05-03T03:03:07.168Z,1006.72
2019-05-03T03:04:07.184Z,1006.76
2019-05-03T03:05:07.143Z,1006.72
2019-05-03T03:06:07.260Z,1006.73
2019-05-03T03:07:07.131Z,1006.70
2019-05-03T03:08:07.129Z,1006.75
2019-05-03T03:09:07.500Z,1006.75
2019-05-03T03:10:07.093Z,1006.70
2019-05-03T03:11:07.086Z,1006.75
2019-05-03T03:12:07.976Z,1006.74
2019-05-03T03:13:07.079Z,1006.69
2019-05-03T03:14:07.075Z,1006.76
2019-05-03T03:15:07.042Z,1006.76
2019-05-03T03:16:07.120Z,1006.78
2019-05-03T03:17:07.980Z,1006.79
2019-05-03T03:18:07.028Z,1006.78
2019-05-03T03:19:07.200Z,1006.78
2019-05-03T03:20:07.011Z,1006.85
2019-05-03T03:21:06.975Z,1006.83
2019-05-03T03:22:06.976Z,1006.78
2019-05-03T03:23:06.956Z,1006.82
2019-05-03T03:24:07.489Z,1006.80
2019-05-03T03:25:06.958Z,1006.87
2019-05-03T03:26:06.933Z,1006.82
2019-05-03T03:27:06.915Z,1006.86
2019-05-03T03:28:07.527Z,1006.86
2019-05-03T03:29:06.894Z,1006.85
2019-05-03T03:30:07.889Z,1006.83
2019-05-03T03:31:08.339Z,1006.86
2019-05-03T03:32:09.097Z,1006.89
2019-05-03T03:33:08.638Z,1006.90
2019-05-03T03:34:08.126Z,1006.88
2019-05-03T03:35:11.749Z,1006.93
2019-05-03T03:36:31.337Z,1006.88
2019-05-03T03:37:10.391Z,1006.86
2019-05-03T03:38:06.811Z,1006.91
2019-05-03T03:39:06.789Z,1006.89
2019-05-03T03:40:07.013Z,1006.87
2019-05-03T03:41:07.492Z,1006.91
2019-05-03T03:42:06.763Z,1006.97
2019-05-03T03:43:06.741Z,1006.94
2019-05-03T03:44:06.732Z,1006.93
2019-05-03T03:45:06.748Z,1006.98
2019-05-03T03:46:07.514Z,1007.01
2019-05-03T03:47:06.716Z,1007.01
2019-05-03T03:48:06.700Z,1007.01
2019-05-03T03:49:07.173Z,1006.95
2019-05-03T03:50:07.016Z,1007.02
2019-05-03T03:51:06.658Z,1007.02
2019-05-03T03:52:06.667Z,1007.08
2019-05-03T03:53:07.493Z,1007.06
2019-05-03T03:54:07.483Z,1007.11
2019-05-03T03:55:06.696Z,1007.15
2019-05-03T03:56:06.602Z,1007.19
2019-05-03T03:57:08.314Z,1007.22
2019-05-03T03:58:06.772Z,1007.22
2019-05-03T03:59:06.583Z,1007.20
2019-05-03T04:00:06.583Z,1007.27
2019-05-03T04:01:06.558Z,1007.31
2019-05-03T04:02:06.560Z,1007.32
2019-05-03T04:03:07.485Z,1007.28
2019-05-03T04:04:06.520Z,1007.32
2019-05-03T04:05:06.508Z,1007.34
2019-05-03T04:06:06.498Z,1007.34
2019-05-03T04:07:07.017Z,1007.35
2019-05-03T04:08:06.997Z,1007.38
2019-05-03T04:09:06.984Z,1007.39
2019-05-03T04:10:06.465Z,1007.40
2019-05-03T04:11:06.583Z,1007.36
2019-05-03T04:12:06.472Z,1007.46
2019-05-03T04:13:06.418Z,1007.45
2019-05-03T04:14:06.404Z,1007.45
2019-05-03T04:15:06.422Z,1007.49
2019-05-03T04:16:06.391Z,1007.50
2019-05-03T04:17:06.383Z,1007.47
2019-05-03T04:18:06.367Z,1007.52
2019-05-03T04:19:06.349Z,1007.49
2019-05-03T04:20:06.351Z,1007.53
2019-05-03T04:21:06.330Z,1007.52
2019-05-03T04:22:07.001Z,1007.54
2019-05-03T04:23:06.998Z,1007.57
2019-05-03T04:24:06.395Z,1007.57
2019-05-03T04:25:06.530Z,1007.57
2019-05-03T04:26:07.050Z,1007.49
2019-05-03T04:27:18.531Z,1007.60
2019-05-03T04:28:06.276Z,1007.60
2019-05-03T04:29:06.268Z,1007.62
2019-05-03T04:30:07.049Z,1007.59
2019-05-03T04:31:06.511Z,1007.59
2019-05-03T04:32:06.306Z,1007.60
2019-05-03T04:33:06.419Z,1007.57
2019-05-03T04:34:06.208Z,1007.62
2019-05-03T04:35:06.194Z,1007.65
2019-05-03T04:36:06.523Z,1007.62
2019-05-03T04:37:06.164Z,1007.68
2019-05-03T04:38:06.143Z,1007.65
2019-05-03T04:39:06.133Z,1007.65
2019-05-03T04:40:06.403Z,1007.60
2019-05-03T04:41:06.342Z,1007.72
2019-05-03T04:42:07.174Z,1007.71
2019-05-03T04:43:06.514Z,1007.76
2019-05-03T04:44:07.021Z,1007.77
2019-05-03T04:45:06.158Z,1007.76
2019-05-03T04:46:06.939Z,1007.79
2019-05-03T04:47:07.099Z,1007.77
2019-05-03T04:48:06.316Z,1007.81
2019-05-03T04:49:06.046Z,1007.82
2019-05-03T04:50:07.005Z,1007.82
2019-05-03T04:51:06.545Z,1007.82
2019-05-03T04:52:06.226Z,1007.83
2019-05-03T04:53:06.489Z,1007.85
2019-05-03T04:54:05.991Z,1007.89
2019-05-03T04:55:06.744Z,1007.86
2019-05-03T04:56:06.052Z,1007.90
2019-05-03T04:57:06.590Z,1007.92
2019-05-03T04:58:05.951Z,1007.93
2019-05-03T04:59:05.927Z,1007.93
2019-05-03T05:00:10.728Z,1007.92
2019-05-03T05:01:06.451Z,1007.91
2019-05-03T05:02:06.346Z,1007.95
2019-05-03T05:03:06.238Z,1007.96
2019-05-03T05:04:05.862Z,1007.98
2019-05-03T05:05:06.184Z,1007.94
2019-05-03T05:06:06.578Z,1008.02
2019-05-03T05:07:06.342Z,1008.01
2019-05-03T05:08:06.201Z,1008.01
2019-05-03T05:09:05.818Z,1008.02
2019-05-03T05:10:05.811Z,1008.04
2019-05-03T05:11:09.876Z,1008.02
2019-05-03T05:12:06.487Z,1008.05
2019-05-03T05:13:05.835Z,1008.05
2019-05-03T05:14:06.395Z,1008.07
2019-05-03T05:15:05.757Z,1008.03
2019-05-03T05:16:06.298Z,1008.04
2019-05-03T05:17:06.495Z,1008.06
2019-05-03T05:18:06.217Z,1008.08
2019-05-03T05:19:05.936Z,1008.05
2019-05-03T05:20:05.707Z,1008.10
2019-05-03T05:21:05.693Z,1008.11
2019-05-03T05:22:06.488Z,1008.10
2019-05-03T05:23:05.658Z,1008.13
2019-05-03T05:24:06.488Z,1008.06
2019-05-03T05:25:06.486Z,1008.19
2019-05-03T05:26:05.703Z,1008.15
2019-05-03T05:27:05.621Z,1008.14
2019-05-03T05:28:05.609Z,1008.17
2019-05-03T05:29:06.511Z,1008.14
2019-05-03T05:30:05.590Z,1008.22
2019-05-03T05:31:06.019Z,1008.24
2019-05-03T05:32:06.486Z,1008.26
2019-05-03T05:33:05.563Z,1008.24
2019-05-03T05:34:08.566Z,1008.22
2019-05-03T05:35:05.545Z,1008.23
2019-05-03T05:36:05.591Z,1008.25
2019-05-03T05:37:05.540Z,1008.27
2019-05-03T05:38:05.508Z,1008.24
2019-05-03T05:39:05.493Z,1008.19
2019-05-03T05:40:05.478Z,1008.22
2019-05-03T05:41:05.476Z,1008.26
2019-05-03T05:42:05.485Z,1008.22
2019-05-03T05:43:05.994Z,1008.18
2019-05-03T05:44:05.579Z,1008.18
2019-05-03T05:45:05.436Z,1008.23
2019-05-03T05:46:05.489Z,1008.18
2019-05-03T05:47:05.417Z,1008.25
2019-05-03T05:48:05.414Z,1008.24
2019-05-03T05:49:05.401Z,1008.29
2019-05-03T05:50:05.371Z,1008.27
2019-05-03T05:51:05.362Z,1008.30
2019-05-03T05:52:05.367Z,1008.29
2019-05-03T05:53:05.348Z,1008.32
2019-05-03T05:54:05.363Z,1008.28
2019-05-03T05:55:05.316Z,1008.27
2019-05-03T05:56:05.307Z,1008.25
2019-05-03T05:57:08.277Z,1008.30
2019-05-03T05:58:07.944Z,1008.32
2019-05-03T05:59:05.991Z,1008.28
2019-05-03T06:00:05.262Z,1008.34
2019-05-03T06:01:05.563Z,1008.40
2019-05-03T06:02:05.537Z,1008.45
2019-05-03T06:03:05.289Z,1008.39
2019-05-03T06:04:05.991Z,1008.46
2019-05-03T06:05:05.993Z,1008.47
2019-05-03T06:06:05.988Z,1008.48
2019-05-03T06:07:05.207Z,1008.49
2019-05-03T06:08:05.190Z,1008.46
2019-05-03T06:09:05.997Z,1008.50
2019-05-03T06:10:05.365Z,1008.50
2019-05-03T06:11:05.150Z,1008.53
2019-05-03T06:12:05.146Z,1008.54
2019-05-03T06:13:06.025Z,1008.48
2019-05-03T06:14:05.141Z,1008.47
2019-05-03T06:15:05.104Z,1008.51
2019-05-03T06:16:05.257Z,1008.42
2019-05-03T06:17:05.472Z,1008.46
2019-05-03T06:18:06.045Z,1008.53
2019-05-03T06:19:05.064Z,1008.50
2019-05-03T06:20:05.418Z,1008.48
2019-05-03T06:21:05.045Z,1008.41
2019-05-03T06:22:05.194Z,1008.50
2019-05-03T06:23:05.345Z,1008.44
2019-05-03T06:24:05.007Z,1008.44
2019-05-03T06:25:06.545Z,1008.45
2019-05-03T06:26:05.081Z,1008.50
2019-05-03T06:27:05.127Z,1008.50
2019-05-03T06:28:17.766Z,1008.47
2019-05-03T06:29:04.962Z,1008.47
2019-05-03T06:30:05.502Z,1008.49
2019-05-03T06:31:05.492Z,1008.58
2019-05-03T06:32:05.417Z,1008.53
2019-05-03T06:33:05.343Z,1008.55
2019-05-03T06:34:05.494Z,1008.52
2019-05-03T06:35:05.056Z,1008.53
2019-05-03T06:36:05.492Z,1008.59
2019-05-03T06:37:04.877Z,1008.56
2019-05-03T06:38:04.992Z,1008.56
2019-05-03T06:39:08.218Z,1008.54
2019-05-03T06:40:06.046Z,1008.52
2019-05-03T06:41:04.869Z,1008.45
2019-05-03T06:42:05.271Z,1008.49
2019-05-03T06:43:09.837Z,1008.51
2019-05-03T06:44:04.791Z,1008.48
2019-05-03T06:45:10.486Z,1008.52
2019-05-03T06:46:05.357Z,1008.48
2019-05-03T06:47:08.788Z,1008.45
2019-05-03T06:48:05.514Z,1008.44
2019-05-03T06:49:06.562Z,1008.47
2019-05-03T06:50:05.485Z,1008.38
2019-05-03T06:51:09.175Z,1008.45
2019-05-03T06:52:05.931Z,1008.49
2019-05-03T06:53:12.470Z,1008.46
2019-05-03T06:54:05.120Z,1008.53
2019-05-03T06:55:06.326Z,1008.55
2019-05-03T06:56:04.721Z,1008.59
2019-05-03T06:57:05.651Z,1008.61
2019-05-03T06:58:05.202Z,1008.60
2019-05-03T06:59:05.264Z,1008.58
2019-05-03T07:00:05.314Z,1008.59
2019-05-03T07:01:04.741Z,1008.65
2019-05-03T07:02:05.817Z,1008.60
2019-05-03T07:03:05.063Z,1008.65
2019-05-03T07:04:05.190Z,1008.65
2019-05-03T07:05:05.138Z,1008.57
2019-05-03T07:06:04.604Z,1008.51
2019-05-03T07:07:05.234Z,1008.59
2019-05-03T07:08:05.273Z,1008.58
2019-05-03T07:09:05.495Z,1008.62
2019-05-03T07:10:05.036Z,1008.68
2019-05-03T07:11:05.224Z,1008.62
2019-05-03T07:12:05.028Z,1008.59
2019-05-03T07:13:05.052Z,1008.65
2019-05-03T07:14:05.283Z,1008.68
2019-05-03T07:15:05.222Z,1008.59
2019-05-03T07:16:04.725Z,1008.62
2019-05-03T07:17:05.528Z,1008.65
2019-05-03T07:18:05.810Z,1008.62
2019-05-03T07:19:04.995Z,1008.65
2019-05-03T07:20:04.707Z,1008.64
2019-05-03T07:21:04.843Z,1008.65
2019-05-03T07:22:05.221Z,1008.66
2019-05-03T07:23:04.447Z,1008.69
2019-05-03T07:24:05.440Z,1008.68
2019-05-03T07:25:04.690Z,1008.69
2019-05-03T07:26:05.359Z,1008.65
2019-05-03T07:27:05.458Z,1008.67
2019-05-03T07:28:04.482Z,1008.69
2019-05-03T07:29:05.011Z,1008.59
2019-05-03T07:30:05.019Z,1008.72
2019-05-03T07:31:04.815Z,1008.64
2019-05-03T07:32:05.195Z,1008.64
2019-05-03T07:33:04.875Z,1008.60
2019-05-03T07:34:05.219Z,1008.62
2019-05-03T07:35:04.580Z,1008.52
2019-05-03T07:36:05.342Z,1008.60
2019-05-03T07:37:05.884Z,1008.58
2019-05-03T07:38:05.434Z,1008.61
2019-05-03T07:39:05.410Z,1008.63
2019-05-03T07:40:04.728Z,1008.57
2019-05-03T07:41:05.321Z,1008.56
2019-05-03T07:42:05.543Z,1008.52
2019-05-03T07:43:04.583Z,1008.58
2019-05-03T07:44:05.355Z,1008.57
2019-05-03T07:45:05.080Z,1008.56
2019-05-03T07:46:05.623Z,1008.55
2019-05-03T07:47:04.811Z,1008.56
2019-05-03T07:48:05.020Z,1008.58
2019-05-03T07:49:05.027Z,1008.57
2019-05-03T07:50:04.987Z,1008.57
2019-05-03T07:51:05.541Z,1008.56
2019-05-03T07:52:05.794Z,1008.53
2019-05-03T07:53:04.644Z,1008.54
2019-05-03T07:54:04.774Z,1008.59
2019-05-03T07:55:05.020Z,1008.55
2019-05-03T07:56:05.241Z,1008.60
2019-05-03T07:57:05.130Z,1008.59
2019-05-03T07:58:04.650Z,1008.55
2019-05-03T07:59:06.297Z,1008.54
2019-05-03T08:00:05.038Z,1008.61
2019-05-03T08:01:09.375Z,1008.67
2019-05-03T08:02:05.591Z,1008.65
2019-05-03T08:03:05.004Z,1008.68
2019-05-03T08:04:05.496Z,1008.64
2019-05-03T08:05:05.239Z,1008.60
2019-05-03T08:06:04.811Z,1008.65
2019-05-03T08:07:04.666Z,1008.64
2019-05-03T08:08:04.811Z,1008.64
2019-05-03T08:09:04.908Z,1008.66
2019-05-03T08:10:05.398Z,1008.62
2019-05-03T08:11:05.261Z,1008.55
2019-05-03T08:12:05.121Z,1008.61
2019-05-03T08:13:04.681Z,1008.51
2019-05-03T08:14:05.002Z,1008.58
2019-05-03T08:15:05.373Z,1008.58
2019-05-03T08:16:05.905Z,1008.63
2019-05-03T08:17:05.085Z,1008.59
2019-05-03T08:18:04.949Z,1008.51
2019-05-03T08:19:04.850Z,1008.60
2019-05-03T08:20:05.259Z,1008.58
2019-05-03T08:21:05.588Z,1008.62
2019-05-03T08:22:04.789Z,1008.63
2019-05-03T08:23:05.322Z,1008.62
2019-05-03T08:24:04.522Z,1008.66
2019-05-03T08:25:05.416Z,1008.68
2019-05-03T08:26:05.781Z,1008.59
2019-05-03T08:27:05.020Z,1008.61
2019-05-03T08:28:05.264Z,1008.61
2019-05-03T08:29:15.235Z,1008.61
2019-05-03T08:30:04.676Z,1008.61
2019-05-03T08:31:04.810Z,1008.51
2019-05-03T08:32:05.046Z,1008.57
2019-05-03T08:33:05.540Z,1008.55
2019-05-03T08:34:04.794Z,1008.60
2019-05-03T08:35:04.819Z,1008.56
2019-05-03T08:36:04.845Z,1008.49
2019-05-03T08:37:05.133Z,1008.63
2019-05-03T08:38:04.965Z,1008.63
2019-05-03T08:39:05.493Z,1008.66
2019-05-03T08:40:05.216Z,1008.65
2019-05-03T08:41:05.310Z,1008.64
2019-05-03T08:42:04.782Z,1008.61
2019-05-03T08:43:05.139Z,1008.66
2019-05-03T08:44:05.215Z,1008.67
2019-05-03T08:45:04.559Z,1008.73
2019-05-03T08:46:04.575Z,1008.64
2019-05-03T08:47:05.186Z,1008.66
2019-05-03T08:48:05.391Z,1008.66
2019-05-03T08:49:05.192Z,1008.68
2019-05-03T08:50:05.487Z,1008.67
2019-05-03T08:51:04.521Z,1008.66
2019-05-03T08:52:05.486Z,1008.69
2019-05-03T08:53:05.129Z,1008.71
2019-05-03T08:54:04.746Z,1008.66
2019-05-03T08:55:05.258Z,1008.73
2019-05-03T08:56:05.136Z,1008.66
2019-05-03T08:57:03.368Z,1008.63
2019-05-03T08:58:05.241Z,1008.69
2019-05-03T08:59:04.706Z,1008.73
2019-05-03T09:00:05.275Z,1008.67
2019-05-03T09:01:05.316Z,1008.66
2019-05-03T09:02:13.629Z,1008.64
2019-05-03T09:03:05.119Z,1008.66
2019-05-03T09:04:04.949Z,1008.64
2019-05-03T09:05:05.151Z,1008.61
2019-05-03T09:06:04.662Z,1008.68
2019-05-03T09:07:05.474Z,1008.55
2019-05-03T09:08:05.420Z,1008.68
2019-05-03T09:09:04.663Z,1008.68
2019-05-03T09:10:05.296Z,1008.57
2019-05-03T09:11:05.059Z,1008.63
2019-05-03T09:12:04.737Z,1008.65
2019-05-03T09:13:05.527Z,1008.68
2019-05-03T09:14:04.634Z,1008.65
2019-05-03T09:15:04.765Z,1008.69
2019-05-03T09:16:03.199Z,1008.69
2019-05-03T09:17:04.973Z,1008.61
2019-05-03T09:18:04.842Z,1008.60
2019-05-03T09:19:05.397Z,1008.58
2019-05-03T09:20:05.109Z,1008.60
2019-05-03T09:21:05.004Z,1008.59
2019-05-03T09:22:06.114Z,1008.54
2019-05-03T09:23:05.319Z,1008.54
2019-05-03T09:24:04.673Z,1008.52
2019-05-03T09:25:04.937Z,1008.58
2019-05-03T09:26:04.660Z,1008.55
2019-05-03T09:27:05.112Z,1008.57
2019-05-03T09:28:04.696Z,1008.58
2019-05-03T09:29:05.526Z,1008.58
2019-05-03T09:30:05.065Z,1008.60
2019-05-03T09:31:04.681Z,1008.58
2019-05-03T09:32:05.014Z,1008.54
2019-05-03T09:33:06.045Z,1008.56
2019-05-03T09:34:07.495Z,1008.49
2019-05-03T09:35:02.979Z,1008.42
2019-05-03T09:36:02.973Z,1008.48
2019-05-03T09:37:04.771Z,1008.50
2019-05-03T09:38:05.511Z,1008.47
2019-05-03T09:39:05.011Z,1008.37
2019-05-03T09:40:04.496Z,1008.43
2019-05-03T09:41:05.106Z,1008.40
2019-05-03T09:42:04.681Z,1008.45
2019-05-03T09:43:04.690Z,1008.46
2019-05-03T09:44:04.733Z,1008.39
2019-05-03T09:45:04.834Z,1008.38
2019-05-03T09:46:05.015Z,1008.38
2019-05-03T09:47:02.832Z,1008.39
2019-05-03T09:48:05.454Z,1008.32
2019-05-03T09:49:12.586Z,1008.39
2019-05-03T09:50:04.693Z,1008.41
2019-05-03T09:51:05.195Z,1008.42
2019-05-03T09:52:02.968Z,1008.34
2019-05-03T09:53:02.749Z,1008.37
2019-05-03T09:54:02.736Z,1008.41
2019-05-03T09:55:02.730Z,1008.35
2019-05-03T09:56:04.890Z,1008.42
2019-05-03T09:57:02.765Z,1008.39
2019-05-03T09:58:02.700Z,1008.39
2019-05-03T09:59:02.683Z,1008.39
2019-05-03T10:00:04.904Z,1008.39
2019-05-03T10:01:05.300Z,1008.38
2019-05-03T10:02:04.739Z,1008.37
2019-05-03T10:03:05.635Z,1008.40
2019-05-03T10:04:02.629Z,1008.38
2019-05-03T10:05:02.646Z,1008.39
2019-05-03T10:06:03.556Z,1008.39
2019-05-03T10:07:02.609Z,1008.35
2019-05-03T10:08:04.887Z,1008.36
2019-05-03T10:09:05.374Z,1008.39
2019-05-03T10:10:02.565Z,1008.37
2019-05-03T10:11:02.548Z,1008.32
2019-05-03T10:12:02.582Z,1008.33
2019-05-03T10:13:13.102Z,1008.36
2019-05-03T10:14:04.595Z,1008.35
2019-05-03T10:15:02.558Z,1008.29
2019-05-03T10:16:02.491Z,1008.33
2019-05-03T10:17:04.920Z,1008.35
2019-05-03T10:18:10.070Z,1008.37
2019-05-03T10:19:02.485Z,1008.35
2019-05-03T10:20:03.015Z,1008.36
2019-05-03T10:21:03.149Z,1008.40
2019-05-03T10:22:04.458Z,1008.31
2019-05-03T10:23:05.098Z,1008.33
2019-05-03T10:24:02.413Z,1008.29
2019-05-03T10:25:02.419Z,1008.36
2019-05-03T10:26:02.437Z,1008.31
2019-05-03T10:27:02.390Z,1008.31
2019-05-03T10:28:03.019Z,1008.30
2019-05-03T10:29:02.383Z,1008.33
2019-05-03T10:30:10.552Z,1008.37
2019-05-03T10:31:06.931Z,1008.32
2019-05-03T10:32:02.383Z,1008.35
2019-05-03T10:33:02.319Z,1008.37
2019-05-03T10:34:05.558Z,1008.38
2019-05-03T10:35:05.506Z,1008.36
2019-05-03T10:36:02.284Z,1008.33
2019-05-03T10:37:02.317Z,1008.34
2019-05-03T10:38:02.267Z,1008.41
2019-05-03T10:39:02.246Z,1008.29
2019-05-03T10:40:05.176Z,1008.43
2019-05-03T10:41:02.247Z,1008.41
2019-05-03T10:42:02.214Z,1008.40
2019-05-03T10:43:02.236Z,1008.41
2019-05-03T10:44:02.204Z,1008.46
2019-05-03T10:45:04.509Z,1008.36
2019-05-03T10:46:04.987Z,1008.40
2019-05-03T10:47:02.191Z,1008.35
2019-05-03T10:48:04.580Z,1008.34
2019-05-03T10:49:03.012Z,1008.34
2019-05-03T10:50:02.135Z,1008.37
2019-05-03T10:51:02.112Z,1008.32
2019-05-03T10:52:02.113Z,1008.24
2019-05-03T10:53:02.098Z,1008.25
2019-05-03T10:54:02.091Z,1008.33
2019-05-03T10:55:02.069Z,1008.34
2019-05-03T10:56:05.008Z,1008.33
2019-05-03T10:57:02.059Z,1008.26
2019-05-03T10:58:02.097Z,1008.33
2019-05-03T10:59:03.015Z,1008.32
2019-05-03T11:00:02.519Z,1008.28
2019-05-03T11:01:02.007Z,1008.31
2019-05-03T11:02:01.994Z,1008.35
2019-05-03T11:03:02.008Z,1008.35
2019-05-03T11:04:02.511Z,1008.36
2019-05-03T11:05:02.513Z,1008.34
2019-05-03T11:06:01.956Z,1008.32
2019-05-03T11:07:01.939Z,1008.35
2019-05-03T11:08:02.022Z,1008.32
2019-05-03T11:09:02.571Z,1008.30
2019-05-03T11:10:02.523Z,1008.27
2019-05-03T11:11:02.516Z,1008.29
2019-05-03T11:12:02.517Z,1008.25
2019-05-03T11:13:01.890Z,1008.25
2019-05-03T11:14:01.861Z,1008.25
2019-05-03T11:15:01.884Z,1008.27
2019-05-03T11:16:02.515Z,1008.25
2019-05-03T11:17:02.552Z,1008.27
2019-05-03T11:18:02.039Z,1008.29
2019-05-03T11:19:01.805Z,1008.24
2019-05-03T11:20:02.510Z,1008.26
2019-05-03T11:21:01.780Z,1008.29
2019-05-03T11:22:01.775Z,1008.27
2019-05-03T11:23:01.773Z,1008.23
2019-05-03T11:24:01.746Z,1008.20
2019-05-03T11:25:02.511Z,1008.19
2019-05-03T11:26:01.736Z,1008.19
2019-05-03T11:27:01.715Z,1008.24
2019-05-03T11:28:01.752Z,1008.16
2019-05-03T11:29:02.051Z,1008.23
2019-05-03T11:30:02.531Z,1008.21
2019-05-03T11:31:02.371Z,1008.18
2019-05-03T11:32:01.682Z,1008.17
2019-05-03T11:33:02.510Z,1008.11
2019-05-03T11:34:01.646Z,1008.06
2019-05-03T11:35:01.623Z,1008.06
2019-05-03T11:36:01.615Z,1008.10
2019-05-03T11:37:01.603Z,1008.05
2019-05-03T11:38:01.594Z,1008.06
2019-05-03T11:39:02.112Z,1008.02
2019-05-03T11:40:01.590Z,1008.10
2019-05-03T11:41:01.566Z,1007.96
2019-05-03T11:42:01.553Z,1008.03
2019-05-03T11:43:01.545Z,1007.98
2019-05-03T11:44:02.032Z,1007.99
2019-05-03T11:45:01.514Z,1007.99
2019-05-03T11:46:02.007Z,1008.03
2019-05-03T11:47:01.508Z,1007.99
2019-05-03T11:48:02.091Z,1007.98
2019-05-03T11:49:01.478Z,1007.96
2019-05-03T11:50:01.463Z,1007.91
2019-05-03T11:51:02.015Z,1007.94
2019-05-03T11:52:02.297Z,1007.86
2019-05-03T11:53:01.428Z,1007.88
2019-05-03T11:54:01.477Z,1007.89
2019-05-03T11:55:01.410Z,1007.91
2019-05-03T11:56:01.400Z,1007.96
2019-05-03T11:57:01.421Z,1007.89
2019-05-03T11:58:01.372Z,1007.91
2019-05-03T11:59:01.376Z,1007.85
2019-05-03T12:00:01.370Z,1007.89
2019-05-03T12:01:14.912Z,1007.86
2019-05-03T12:02:01.436Z,1007.88
2019-05-03T12:03:02.025Z,1007.88
2019-05-03T12:04:01.310Z,1007.92
2019-05-03T12:05:01.363Z,1007.91